Time;durP1;ratioP1;P1;durP2;ratioP2;P2;SDS_P1;SDS_P2;PMS_P1;PMS_P2;Temp;Humidity;BMP_temperature;BMP_pressure;BME280_temperature;BME280_humidity;BME280_pressure;Samples;Min_cycle;Max_cycle;Signal;HPM_P1;HPM_P2
2022/09/14 00:00:40;;;;;;;0.30;0.30;;;;;;;;;;1872632;76;26269;-49
2022/09/14 00:03:08;;;;;;;0.20;0.20;;;;;;;;;;1877385;76;26326;-48
2022/09/14 00:05:35;;;;;;;0.20;0.20;;;;;;;;;;1880077;76;26232;-47
2022/09/14 00:08:03;;;;;;;0.30;0.30;;;;;;;;;;1882180;76;26769;-46
2022/09/14 00:10:30;;;;;;;0.20;0.20;;;;;;;;;;1882811;76;26243;-47
2022/09/14 00:12:59;;;;;;;0.20;0.20;;;;;;;;;;1884840;76;26340;-43
2022/09/14 00:15:26;;;;;;;0.10;0.10;;;;;;;;;;1858152;76;26247;-45
2022/09/14 00:17:53;;;;;;;0.25;0.25;;;;;;;;;;1875352;76;26652;-48
2022/09/14 00:20:21;;;;;;;0.20;0.20;;;;;;;;;;1867933;76;26320;-47
2022/09/14 00:22:48;;;;;;;0.20;0.20;;;;;;;;;;1861302;75;26254;-46
2022/09/14 00:25:17;;;;;;;0.20;0.20;;;;;;;;;;1882146;75;26223;-48
2022/09/14 00:27:44;;;;;;;0.20;0.20;;;;;;;;;;1887137;75;26210;-43
2022/09/14 00:30:11;;;;;;;0.20;0.20;;;;;;;;;;1875236;75;26237;-46
2022/09/14 00:32:38;;;;;;;0.17;0.17;;;;;;;;;;1897676;75;26746;-45
2022/09/14 00:35:06;;;;;;;0.20;0.20;;;;;;;;;;1884359;75;26257;-45
2022/09/14 00:37:33;;;;;;;0.20;0.20;;;;;;;;;;1888705;75;26266;-52
2022/09/14 00:40:01;;;;;;;0.20;0.20;;;;;;;;;;1904284;75;26344;-48
2022/09/14 00:42:28;;;;;;;0.28;0.28;;;;;;;;;;1908137;75;26320;-47
2022/09/14 00:45:00;;;;;;;1.85;0.20;;;;;;;;;;1886439;75;26250;-44
2022/09/14 00:47:28;;;;;;;0.20;0.20;;;;;;;;;;1895178;75;26695;-49
2022/09/14 00:49:57;;;;;;;0.20;0.20;;;;;;;;;;1887852;75;26721;-48
2022/09/14 00:52:28;;;;;;;0.10;0.10;;;;;;;;;;1880787;75;26294;-46
2022/09/14 00:55:00;;;;;;;0.20;0.20;;;;;;;;;;1867926;75;26367;-48
2022/09/14 00:57:29;;;;;;;0.30;0.30;;;;;;;;;;1895990;75;26281;-46
2022/09/14 00:59:56;;;;;;;0.30;0.30;;;;;;;;;;1908797;75;26235;-44
2022/09/14 01:02:25;;;;;;;0.13;0.13;;;;;;;;;;1907967;75;26297;-50
2022/09/14 01:04:53;;;;;;;0.20;0.20;;;;;;;;;;1896787;75;26708;-48
2022/09/14 01:07:25;;;;;;;0.20;0.20;;;;;;;;;;1887751;75;26238;-50
2022/09/14 01:09:54;;;;;;;0.20;0.20;;;;;;;;;;1885642;75;26329;-48
2022/09/14 01:12:38;;;;;;;0.28;0.28;;;;;;;;;;1885515;75;27470;-49
2022/09/14 01:15:12;;;;;;;0.10;0.10;;;;;;;;;;1879051;75;26753;-46
2022/09/14 01:17:44;;;;;;;0.17;0.17;;;;;;;;;;1898060;75;26304;-44
2022/09/14 01:20:13;;;;;;;0.20;0.20;;;;;;;;;;1880603;75;26250;-47
2022/09/14 01:22:47;;;;;;;0.20;0.20;;;;;;;;;;1900466;75;26306;-49
2022/09/14 01:25:19;;;;;;;0.23;0.23;;;;;;;;;;1905825;75;26715;-48
2022/09/14 01:27:48;;;;;;;0.20;0.20;;;;;;;;;;1883545;75;26800;-50
2022/09/14 01:30:17;;;;;;;0.10;0.10;;;;;;;;;;1906163;75;26285;-51
2022/09/14 01:32:45;;;;;;;0.20;0.20;;;;;;;;;;1889343;75;26524;-51
2022/09/14 01:35:17;;;;;;;0.10;0.10;;;;;;;;;;1862774;75;26255;-47
2022/09/14 01:37:46;;;;;;;0.20;0.20;;;;;;;;;;1878281;75;26779;-46
2022/09/14 01:40:15;;;;;;;0.20;0.20;;;;;;;;;;1890068;75;27019;-47
2022/09/14 01:42:44;;;;;;;0.20;0.20;;;;;;;;;;1878048;75;27407;-49
2022/09/14 01:45:13;;;;;;;0.10;0.10;;;;;;;;;;1879927;75;26319;-46
2022/09/14 01:47:41;;;;;;;0.10;0.10;;;;;;;;;;1879051;75;26254;-48
2022/09/14 01:50:10;;;;;;;0.10;0.10;;;;;;;;;;1858089;75;26239;-48
2022/09/14 01:52:39;;;;;;;0.10;0.10;;;;;;;;;;1902921;75;26247;-49
2022/09/14 01:55:08;;;;;;;0.17;0.17;;;;;;;;;;1893174;75;26285;-50
2022/09/14 01:57:37;;;;;;;0.10;0.10;;;;;;;;;;1908313;75;26262;-47
2022/09/14 02:00:06;;;;;;;0.20;0.20;;;;;;;;;;1906848;75;26651;-51
2022/09/14 02:02:41;;;;;;;0.10;0.10;;;;;;;;;;1903589;75;26609;-48
2022/09/14 02:05:10;;;;;;;0.10;0.10;;;;;;;;;;1891198;75;26278;-48
2022/09/14 02:07:37;;;;;;;0.20;0.20;;;;;;;;;;1885257;75;26259;-48
2022/09/14 02:10:07;;;;;;;0.10;0.10;;;;;;;;;;1875119;75;26702;-47
2022/09/14 02:12:35;;;;;;;0.20;0.20;;;;;;;;;;1892161;75;26658;-47
2022/09/14 02:15:03;;;;;;;0.10;0.10;;;;;;;;;;1870084;75;26861;-48
2022/09/14 02:17:30;;;;;;;0.13;0.13;;;;;;;;;;1890491;75;26223;-45
2022/09/14 02:19:59;;;;;;;0.10;0.10;;;;;;;;;;1880211;75;26859;-48
2022/09/14 02:22:28;;;;;;;0.28;0.28;;;;;;;;;;1867559;75;26250;-49
2022/09/14 02:24:55;;;;;;;0.20;0.20;;;;;;;;;;1890674;75;26262;-47
2022/09/14 02:27:23;;;;;;;1.25;0.15;;;;;;;;;;1854963;75;27471;-51
2022/09/14 02:29:51;;;;;;;0.10;0.10;;;;;;;;;;1872491;75;26808;-50
2022/09/14 02:32:22;;;;;;;0.10;0.10;;;;;;;;;;1880328;74;26253;-51
2022/09/14 02:34:51;;;;;;;0.10;0.10;;;;;;;;;;1872340;75;26746;-47
2022/09/14 02:37:20;;;;;;;0.13;0.13;;;;;;;;;;1865819;75;26436;-46
2022/09/14 02:39:58;;;;;;;0.10;0.10;;;;;;;;;;1896629;75;26219;-50
2022/09/14 02:42:27;;;;;;;0.10;0.10;;;;;;;;;;1902746;75;26247;-44
2022/09/14 02:44:56;;;;;;;0.10;0.10;;;;;;;;;;1889996;75;25681;-46
2022/09/14 02:47:24;;;;;;;0.20;0.20;;;;;;;;;;1882326;75;26599;-49
2022/09/14 02:49:53;;;;;;;0.15;0.15;;;;;;;;;;1838607;75;26761;-48
2022/09/14 02:52:34;;;;;;;0.10;0.10;;;;;;;;;;1882348;75;26796;-46
2022/09/14 02:55:06;;;;;;;0.10;0.10;;;;;;;;;;1869841;75;26287;-48
2022/09/14 02:57:35;;;;;;;0.20;0.20;;;;;;;;;;1861592;75;26246;-50
2022/09/14 03:00:03;;;;;;;0.20;0.20;;;;;;;;;;1881580;75;26275;-46
2022/09/14 03:02:30;;;;;;;0.20;0.20;;;;;;;;;;1874825;75;26409;-48
2022/09/14 03:04:57;;;;;;;0.10;0.10;;;;;;;;;;1872847;75;26321;-48
2022/09/14 03:07:24;;;;;;;0.13;0.13;;;;;;;;;;1899101;75;26320;-45
2022/09/14 03:09:52;;;;;;;0.13;0.13;;;;;;;;;;1881244;75;26246;-44
2022/09/14 03:12:19;;;;;;;0.20;0.20;;;;;;;;;;1881946;75;26239;-50
2022/09/14 03:14:47;;;;;;;0.15;0.15;;;;;;;;;;1900332;74;26243;-45
2022/09/14 03:17:14;;;;;;;0.10;0.10;;;;;;;;;;1905277;75;26741;-47
2022/09/14 03:19:41;;;;;;;0.20;0.20;;;;;;;;;;1897684;75;26760;-49
2022/09/14 03:22:08;;;;;;;0.15;0.15;;;;;;;;;;1908235;75;26942;-49
2022/09/14 03:24:36;;;;;;;0.17;0.17;;;;;;;;;;1900013;75;26750;-51
2022/09/14 03:27:03;;;;;;;0.10;0.10;;;;;;;;;;1899542;75;26309;-45
2022/09/14 03:29:30;;;;;;;0.20;0.20;;;;;;;;;;1870364;75;25731;-50
2022/09/14 03:31:58;;;;;;;0.42;0.15;;;;;;;;;;1872508;75;26425;-49
2022/09/14 03:34:25;;;;;;;0.20;0.20;;;;;;;;;;1874052;75;26807;-49
2022/09/14 03:36:52;;;;;;;0.17;0.17;;;;;;;;;;1898018;75;26309;-47
2022/09/14 03:39:20;;;;;;;0.17;0.17;;;;;;;;;;1882872;75;26250;-45
2022/09/14 03:41:47;;;;;;;0.10;0.10;;;;;;;;;;1878659;75;26758;-49
2022/09/14 03:44:15;;;;;;;1.17;0.28;;;;;;;;;;1863755;75;26259;-44
2022/09/14 03:46:43;;;;;;;0.10;0.10;;;;;;;;;;1892757;75;27426;-51
2022/09/14 03:49:10;;;;;;;0.20;0.20;;;;;;;;;;1890408;75;26254;-48
2022/09/14 03:51:38;;;;;;;0.10;0.10;;;;;;;;;;1873984;75;26696;-47
2022/09/14 03:54:05;;;;;;;0.17;0.15;;;;;;;;;;1884078;75;26914;-47
2022/09/14 03:56:33;;;;;;;0.20;0.20;;;;;;;;;;1875840;75;26266;-45
2022/09/14 03:59:00;;;;;;;3.20;0.20;;;;;;;;;;1879522;75;27307;-44
2022/09/14 04:01:27;;;;;;;0.10;0.10;;;;;;;;;;1876767;75;26270;-46
2022/09/14 04:03:55;;;;;;;0.10;0.10;;;;;;;;;;1897713;75;26605;-52
2022/09/14 04:06:22;;;;;;;0.17;0.17;;;;;;;;;;1871882;75;26251;-50
2022/09/14 04:08:49;;;;;;;0.10;0.10;;;;;;;;;;1900521;75;26892;-48
2022/09/14 04:11:18;;;;;;;0.10;0.10;;;;;;;;;;1890584;75;26282;-45
2022/09/14 04:13:46;;;;;;;0.20;0.20;;;;;;;;;;1908327;75;27452;-50
2022/09/14 04:16:14;;;;;;;0.17;0.17;;;;;;;;;;1876262;75;26298;-47
2022/09/14 04:18:41;;;;;;;0.20;0.20;;;;;;;;;;1893392;75;26726;-47
2022/09/14 04:21:10;;;;;;;0.10;0.10;;;;;;;;;;1902974;75;26288;-47
2022/09/14 04:23:37;;;;;;;0.20;0.20;;;;;;;;;;1897246;75;26240;-47
2022/09/14 04:26:11;;;;;;;0.17;0.17;;;;;;;;;;1883622;75;26365;-50
2022/09/14 04:28:39;;;;;;;0.17;0.17;;;;;;;;;;1882374;75;26692;-49
2022/09/14 04:31:06;;;;;;;0.20;0.20;;;;;;;;;;1881870;75;26259;-49
2022/09/14 04:33:34;;;;;;;0.20;0.20;;;;;;;;;;1868613;76;26568;-46
2022/09/14 04:36:09;;;;;;;0.10;0.10;;;;;;;;;;1875382;75;26287;-50
2022/09/14 04:38:37;;;;;;;0.10;0.10;;;;;;;;;;1878357;75;26309;-49
2022/09/14 04:41:05;;;;;;;0.10;0.10;;;;;;;;;;1882923;76;26703;-47
2022/09/14 04:43:33;;;;;;;0.20;0.20;;;;;;;;;;1882257;75;26239;-46
2022/09/14 04:46:04;;;;;;;0.10;0.10;;;;;;;;;;1874678;75;26274;-49
2022/09/14 04:48:36;;;;;;;0.10;0.10;;;;;;;;;;1883853;76;26239;-46
2022/09/14 04:51:02;;;;;;;0.13;0.13;;;;;;;;;;1875607;76;26276;-49
2022/09/14 04:53:30;;;;;;;0.10;0.10;;;;;;;;;;1859369;76;26794;-50
2022/09/14 04:56:00;;;;;;;0.10;0.10;;;;;;;;;;1881932;75;26231;-46
2022/09/14 04:58:28;;;;;;;0.10;0.10;;;;;;;;;;1880855;76;26289;-45
2022/09/14 05:00:56;;;;;;;0.00;0.00;;;;;;;;;;1883244;75;27294;-53
2022/09/14 05:03:24;;;;;;;0.10;0.10;;;;;;;;;;1868187;75;27061;-51
2022/09/14 05:05:51;;;;;;;0.20;0.20;;;;;;;;;;1857792;76;26305;-49
2022/09/14 05:08:18;;;;;;;0.85;0.55;;;;;;;;;;1889356;75;26243;-53
2022/09/14 05:10:45;;;;;;;0.35;0.35;;;;;;;;;;1874750;75;26230;-48
2022/09/14 05:13:14;;;;;;;0.62;0.28;;;;;;;;;;1879772;75;26259;-44
2022/09/14 05:15:42;;;;;;;0.20;0.20;;;;;;;;;;1882226;76;26369;-52
2022/09/14 05:18:09;;;;;;;1.12;0.10;;;;;;;;;;1866487;76;26248;-48
2022/09/14 05:20:36;;;;;;;1.02;0.20;;;;;;;;;;1863389;75;26259;-46
2022/09/14 05:23:04;;;;;;;0.20;0.20;;;;;;;;;;1879300;75;26291;-44
2022/09/14 05:25:31;;;;;;;0.30;0.20;;;;;;;;;;1888385;75;26384;-50
2022/09/14 05:27:58;;;;;;;0.40;0.30;;;;;;;;;;1872976;74;27311;-50
2022/09/14 05:30:26;;;;;;;0.50;0.20;;;;;;;;;;1898162;74;26828;-50
2022/09/14 05:32:53;;;;;;;1.17;0.35;;;;;;;;;;1901393;75;26270;-52
2022/09/14 05:35:20;;;;;;;1.35;0.33;;;;;;;;;;1884200;75;26309;-52
2022/09/14 05:37:47;;;;;;;2.55;0.50;;;;;;;;;;1890927;75;26266;-46
2022/09/14 05:40:15;;;;;;;1.80;0.50;;;;;;;;;;1899536;75;26359;-46
2022/09/14 05:42:42;;;;;;;0.88;0.50;;;;;;;;;;1889290;75;26231;-49
2022/09/14 05:45:09;;;;;;;0.65;0.45;;;;;;;;;;1896858;75;26246;-52
2022/09/14 05:47:37;;;;;;;1.17;0.50;;;;;;;;;;1897933;75;26551;-54
2022/09/14 05:50:05;;;;;;;0.30;0.28;;;;;;;;;;1897541;75;26234;-50
2022/09/14 05:52:32;;;;;;;0.60;0.37;;;;;;;;;;1883602;75;26263;-47
2022/09/14 05:54:59;;;;;;;0.45;0.25;;;;;;;;;;1882544;74;26579;-48
2022/09/14 05:57:26;;;;;;;0.60;0.60;;;;;;;;;;1873893;75;26365;-46
2022/09/14 05:59:54;;;;;;;0.30;0.30;;;;;;;;;;1892800;75;26738;-48
2022/09/14 06:02:21;;;;;;;0.65;0.23;;;;;;;;;;1888371;75;26718;-48
2022/09/14 06:04:48;;;;;;;0.88;0.40;;;;;;;;;;1893359;75;26714;-50
2022/09/14 06:07:15;;;;;;;0.50;0.50;;;;;;;;;;1872391;75;26224;-53
2022/09/14 06:09:43;;;;;;;1.90;0.47;;;;;;;;;;1867922;75;26251;-51
2022/09/14 06:12:10;;;;;;;0.30;0.30;;;;;;;;;;1887439;75;27100;-48
2022/09/14 06:14:39;;;;;;;2.17;0.37;;;;;;;;;;1882942;75;26294;-46
2022/09/14 06:17:06;;;;;;;0.85;0.30;;;;;;;;;;1887482;75;26861;-51
2022/09/14 06:19:34;;;;;;;0.42;0.42;;;;;;;;;;1888182;74;26273;-50
2022/09/14 06:22:01;;;;;;;0.20;0.20;;;;;;;;;;1878352;74;26504;-57
2022/09/14 06:24:28;;;;;;;0.30;0.15;;;;;;;;;;1902340;75;26301;-48
2022/09/14 06:26:55;;;;;;;0.20;0.20;;;;;;;;;;1852287;75;26289;-45
2022/09/14 06:29:23;;;;;;;0.55;0.55;;;;;;;;;;1838048;77;26335;-44
2022/09/14 06:31:50;;;;;;;1.15;0.33;;;;;;;;;;1839227;76;26259;-51
2022/09/14 06:34:17;;;;;;;0.30;0.30;;;;;;;;;;1845226;77;26228;-44
2022/09/14 06:36:45;;;;;;;0.30;0.30;;;;;;;;;;1849182;77;26246;-46
2022/09/14 06:39:13;;;;;;;0.75;0.30;;;;;;;;;;1849456;77;26289;-48
2022/09/14 06:41:40;;;;;;;0.30;0.30;;;;;;;;;;1857226;76;26294;-45
2022/09/14 06:44:07;;;;;;;0.40;0.40;;;;;;;;;;1841266;76;26265;-50
2022/09/14 06:46:35;;;;;;;1.50;0.30;;;;;;;;;;1850009;77;26301;-51
2022/09/14 06:49:03;;;;;;;0.10;0.10;;;;;;;;;;1850097;77;26258;-48
2022/09/14 06:51:32;;;;;;;0.30;0.30;;;;;;;;;;1843708;76;25328;-48
2022/09/14 06:54:00;;;;;;;0.40;0.40;;;;;;;;;;1852663;76;26243;-50
2022/09/14 06:56:28;;;;;;;0.42;0.30;;;;;;;;;;1850314;76;26337;-46
2022/09/14 06:58:57;;;;;;;0.15;0.15;;;;;;;;;;1864873;76;26262;-49
2022/09/14 07:01:25;;;;;;;1.95;0.30;;;;;;;;;;1852417;76;26239;-47
2022/09/14 07:03:53;;;;;;;0.30;0.30;;;;;;;;;;1859512;76;26270;-51
2022/09/14 07:06:21;;;;;;;0.30;0.30;;;;;;;;;;1857545;76;26266;-44
2022/09/14 07:08:49;;;;;;;0.30;0.30;;;;;;;;;;1852110;76;26270;-48
2022/09/14 07:11:18;;;;;;;0.20;0.20;;;;;;;;;;1846340;76;27266;-47
2022/09/14 07:13:45;;;;;;;0.57;0.30;;;;;;;;;;1856228;76;26266;-53
2022/09/14 07:16:13;;;;;;;0.20;0.20;;;;;;;;;;1853306;76;26842;-47
2022/09/14 07:18:41;;;;;;;0.23;0.23;;;;;;;;;;1859166;76;26321;-46
2022/09/14 07:21:09;;;;;;;0.30;0.30;;;;;;;;;;1854420;76;27451;-48
2022/09/14 07:23:38;;;;;;;0.20;0.20;;;;;;;;;;1848749;76;26356;-47
2022/09/14 07:26:13;;;;;;;0.30;0.30;;;;;;;;;;1844167;77;26553;-49
2022/09/14 07:28:40;;;;;;;1.12;0.68;;;;;;;;;;1841982;77;26246;-46
2022/09/14 07:31:09;;;;;;;2.35;0.50;;;;;;;;;;1854427;76;26549;-52
2022/09/14 07:33:36;;;;;;;1.65;1.07;;;;;;;;;;1841317;77;26335;-48
2022/09/14 07:36:05;;;;;;;4.67;0.70;;;;;;;;;;1839290;77;26246;-51
2022/09/14 07:38:32;;;;;;;3.30;1.00;;;;;;;;;;1853543;76;26250;-49
2022/09/14 07:40:59;;;;;;;2.27;1.00;;;;;;;;;;1840732;76;26369;-53
2022/09/14 07:43:27;;;;;;;2.62;0.90;;;;;;;;;;1844069;76;26664;-53
2022/09/14 07:45:54;;;;;;;3.70;1.07;;;;;;;;;;1837874;76;26581;-48
2022/09/14 07:48:22;;;;;;;3.60;1.37;;;;;;;;;;1837738;76;26307;-51
2022/09/14 07:50:51;;;;;;;5.50;2.02;;;;;;;;;;1840178;77;26365;-49
2022/09/14 07:53:18;;;;;;;8.00;3.08;;;;;;;;;;1841286;76;26603;-51
2022/09/14 07:55:45;;;;;;;13.58;3.77;;;;;;;;;;1838607;77;26265;-50
2022/09/14 07:58:13;;;;;;;13.53;4.17;;;;;;;;;;1841829;77;26460;-43
2022/09/14 08:00:40;;;;;;;20.43;4.50;;;;;;;;;;1848904;76;26361;-48
2022/09/14 08:03:07;;;;;;;27.22;4.83;;;;;;;;;;1846631;76;26285;-45
2022/09/14 08:05:34;;;;;;;24.27;6.03;;;;;;;;;;1854961;76;26340;-43
2022/09/14 08:08:02;;;;;;;28.27;6.55;;;;;;;;;;1844045;76;26328;-42
2022/09/14 08:10:29;;;;;;;35.38;7.78;;;;;;;;;;1840335;76;26254;-43
2022/09/14 08:12:57;;;;;;;28.00;7.90;;;;;;;;;;1844467;76;26525;-46
2022/09/14 08:15:24;;;;;;;29.20;6.67;;;;;;;;;;1846207;77;26321;-44
2022/09/14 08:17:52;;;;;;;28.02;6.87;;;;;;;;;;1851466;76;26320;-43
2022/09/14 08:20:19;;;;;;;25.12;6.60;;;;;;;;;;1843820;76;26842;-38
2022/09/14 08:22:46;;;;;;;26.10;6.58;;;;;;;;;;1848725;76;26253;-41
2022/09/14 08:25:14;;;;;;;18.67;5.75;;;;;;;;;;1838226;76;26297;-40
2022/09/14 08:27:41;;;;;;;21.37;5.87;;;;;;;;;;1862799;76;26307;-43
2022/09/14 08:30:09;;;;;;;18.60;5.85;;;;;;;;;;1865806;76;26292;-37
2022/09/14 08:32:36;;;;;;;16.62;5.05;;;;;;;;;;1868876;76;26259;-42
2022/09/14 08:35:04;;;;;;;18.77;6.00;;;;;;;;;;1866187;75;26285;-39
2022/09/14 08:37:31;;;;;;;18.32;5.42;;;;;;;;;;1867669;75;26342;-41
2022/09/14 08:39:58;;;;;;;19.12;5.72;;;;;;;;;;1869955;75;26291;-39
2022/09/14 08:42:26;;;;;;;18.95;6.10;;;;;;;;;;1858002;76;26210;-39
2022/09/14 08:44:55;;;;;;;17.82;5.10;;;;;;;;;;1861201;76;26707;-40
2022/09/14 08:47:24;;;;;;;15.98;5.65;;;;;;;;;;1863891;75;26307;-43
2022/09/14 08:49:53;;;;;;;16.87;5.45;;;;;;;;;;1866647;76;26749;-38
2022/09/14 08:52:25;;;;;;;13.43;5.10;;;;;;;;;;1858311;75;26770;-39
2022/09/14 08:54:53;;;;;;;16.25;5.30;;;;;;;;;;1858165;75;26264;-46
2022/09/14 08:57:22;;;;;;;16.57;5.17;;;;;;;;;;1863584;75;26470;-45
2022/09/14 09:00:00;;;;;;;17.35;4.67;;;;;;;;;;1860467;75;26280;-40
2022/09/14 09:02:29;;;;;;;18.92;5.10;;;;;;;;;;1858789;75;26316;-38
2022/09/14 09:05:04;;;;;;;10.45;4.45;;;;;;;;;;1865611;76;26260;-38
2022/09/14 09:07:32;;;;;;;11.25;4.95;;;;;;;;;;1861113;75;26284;-38
2022/09/14 09:10:00;;;;;;;13.68;4.20;;;;;;;;;;1866588;76;26643;-38
2022/09/14 09:12:29;;;;;;;11.78;4.33;;;;;;;;;;1868841;76;26350;-38
2022/09/14 09:15:00;;;;;;;10.80;3.75;;;;;;;;;;1850302;75;26354;-38
2022/09/14 09:17:29;;;;;;;8.35;4.08;;;;;;;;;;1869873;76;26771;-41
2022/09/14 09:19:58;;;;;;;13.35;4.15;;;;;;;;;;1856525;75;26248;-39
2022/09/14 09:22:26;;;;;;;11.08;3.33;;;;;;;;;;1865886;76;26233;-37
2022/09/14 09:24:54;;;;;;;8.48;3.70;;;;;;;;;;1861348;75;26276;-40
2022/09/14 09:27:23;;;;;;;9.80;3.35;;;;;;;;;;1875890;75;26760;-44
2022/09/14 09:29:51;;;;;;;8.45;3.33;;;;;;;;;;1880163;75;26799;-39
2022/09/14 09:32:25;;;;;;;5.25;2.95;;;;;;;;;;1890704;75;26313;-38
2022/09/14 09:34:53;;;;;;;8.95;3.40;;;;;;;;;;1893692;75;26302;-39
2022/09/14 09:37:22;;;;;;;4.65;2.72;;;;;;;;;;1880272;75;26647;-38
2022/09/14 09:39:49;;;;;;;8.88;2.70;;;;;;;;;;1894458;75;26761;-38
2022/09/14 09:42:20;;;;;;;6.08;2.52;;;;;;;;;;1881110;75;26349;-40
2022/09/14 09:45:05;;;;;;;5.15;2.22;;;;;;;;;;1885111;75;26920;-43
2022/09/14 09:47:40;;;;;;;6.17;2.40;;;;;;;;;;1889742;75;26348;-41
2022/09/14 09:50:14;;;;;;;4.20;2.33;;;;;;;;;;1890158;75;27165;-41
2022/09/14 09:52:52;;;;;;;3.05;2.17;;;;;;;;;;1890928;75;26227;-39
2022/09/14 09:55:21;;;;;;;3.47;2.30;;;;;;;;;;1881031;75;26349;-37
2022/09/14 09:57:48;;;;;;;7.08;2.20;;;;;;;;;;1877581;75;26239;-38
2022/09/14 10:00:25;;;;;;;2.85;1.80;;;;;;;;;;1887218;75;26235;-41
2022/09/14 10:02:54;;;;;;;6.08;1.98;;;;;;;;;;1882534;75;26287;-43
2022/09/14 10:05:30;;;;;;;2.55;1.50;;;;;;;;;;1891050;75;26226;-38
2022/09/14 10:08:01;;;;;;;3.95;1.65;;;;;;;;;;1881429;75;26311;-39
2022/09/14 10:10:41;;;;;;;2.98;1.50;;;;;;;;;;1902025;75;26309;-37
2022/09/14 10:13:27;;;;;;;2.70;1.50;;;;;;;;;;1892865;75;26911;-41
2022/09/14 10:15:56;;;;;;;3.52;1.50;;;;;;;;;;1885979;75;26263;-43
2022/09/14 10:18:24;;;;;;;2.58;1.22;;;;;;;;;;1889151;75;26335;-39
2022/09/14 10:20:53;;;;;;;1.45;1.20;;;;;;;;;;1902508;75;26321;-40
2022/09/14 10:23:22;;;;;;;2.98;1.50;;;;;;;;;;1907099;75;26296;-37
2022/09/14 10:25:50;;;;;;;1.40;1.20;;;;;;;;;;1897341;75;26338;-41
2022/09/14 10:28:19;;;;;;;1.37;1.17;;;;;;;;;;1880926;75;26267;-37
2022/09/14 10:30:49;;;;;;;3.98;1.20;;;;;;;;;;1887820;75;26304;-39
2022/09/14 10:33:17;;;;;;;1.72;1.00;;;;;;;;;;1879642;75;27000;-38
2022/09/14 10:35:49;;;;;;;1.15;1.02;;;;;;;;;;1888028;75;26290;-40
2022/09/14 10:38:32;;;;;;;0.93;0.93;;;;;;;;;;1906502;75;26297;-37
2022/09/14 10:41:01;;;;;;;1.92;0.90;;;;;;;;;;1873070;75;26752;-41
2022/09/14 10:43:37;;;;;;;0.82;0.82;;;;;;;;;;1890941;75;26829;-40
2022/09/14 10:46:06;;;;;;;0.78;0.78;;;;;;;;;;1894387;75;26341;-41
2022/09/14 10:48:35;;;;;;;0.90;0.90;;;;;;;;;;1890636;75;26711;-40
2022/09/14 10:51:21;;;;;;;2.08;0.80;;;;;;;;;;1892803;75;26297;-37
2022/09/14 10:53:56;;;;;;;0.98;0.80;;;;;;;;;;1876225;75;26262;-40
2022/09/14 10:56:41;;;;;;;0.70;0.70;;;;;;;;;;1898949;74;26907;-38
2022/09/14 10:59:16;;;;;;;0.93;0.80;;;;;;;;;;1897381;75;26345;-39
2022/09/14 11:01:48;;;;;;;0.80;0.80;;;;;;;;;;1879509;75;26243;-41
2022/09/14 11:04:35;;;;;;;0.55;0.55;;;;;;;;;;1897402;75;26356;-38
2022/09/14 11:07:03;;;;;;;0.95;0.75;;;;;;;;;;1880893;75;26316;-38
2022/09/14 11:09:44;;;;;;;0.65;0.65;;;;;;;;;;1893058;75;26341;-40
2022/09/14 11:12:16;;;;;;;3.12;0.70;;;;;;;;;;1901620;75;27438;-38
2022/09/14 11:14:54;;;;;;;0.53;0.50;;;;;;;;;;1888966;75;26207;-37
2022/09/14 11:17:39;;;;;;;0.57;0.57;;;;;;;;;;1903102;75;26328;-39
2022/09/14 11:20:08;;;;;;;0.50;0.50;;;;;;;;;;1877666;75;26553;-41
2022/09/14 11:22:46;;;;;;;0.72;0.60;;;;;;;;;;1878226;75;26545;-39
2022/09/14 11:25:18;;;;;;;0.57;0.57;;;;;;;;;;1888273;75;26284;-40
2022/09/14 11:27:49;;;;;;;0.70;0.70;;;;;;;;;;1901297;75;26247;-41
2022/09/14 11:30:21;;;;;;;0.55;0.55;;;;;;;;;;1870964;75;26345;-38
2022/09/14 11:32:50;;;;;;;0.35;0.35;;;;;;;;;;1870527;75;26265;-43
2022/09/14 11:35:19;;;;;;;1.12;0.60;;;;;;;;;;1881776;75;26262;-41
2022/09/14 11:37:48;;;;;;;0.40;0.40;;;;;;;;;;1878282;75;26546;-46
2022/09/14 11:40:17;;;;;;;0.45;0.45;;;;;;;;;;1878206;74;26239;-41
2022/09/14 11:42:46;;;;;;;0.50;0.50;;;;;;;;;;1878622;74;26351;-40
2022/09/14 11:45:14;;;;;;;0.40;0.40;;;;;;;;;;1879606;75;26336;-42
2022/09/14 11:47:44;;;;;;;0.50;0.50;;;;;;;;;;1891032;75;26238;-42
2022/09/14 11:50:15;;;;;;;0.60;0.60;;;;;;;;;;1901733;75;26255;-42
2022/09/14 11:52:42;;;;;;;0.30;0.30;;;;;;;;;;1882043;75;26243;-40
2022/09/14 11:55:11;;;;;;;0.40;0.40;;;;;;;;;;1878486;75;26258;-40
2022/09/14 11:57:38;;;;;;;1.05;0.40;;;;;;;;;;1884181;75;26294;-42
2022/09/14 12:00:11;;;;;;;0.30;0.30;;;;;;;;;;1886189;75;26243;-38
2022/09/14 12:02:41;;;;;;;0.40;0.40;;;;;;;;;;1870559;75;26277;-41
2022/09/14 12:05:10;;;;;;;0.55;0.40;;;;;;;;;;1907505;75;26251;-38
2022/09/14 12:07:42;;;;;;;0.33;0.33;;;;;;;;;;1898993;75;26297;-39
2022/09/14 12:10:17;;;;;;;0.30;0.30;;;;;;;;;;1871340;75;26276;-41
2022/09/14 12:12:45;;;;;;;0.30;0.30;;;;;;;;;;1859333;75;26239;-40
2022/09/14 12:15:23;;;;;;;0.20;0.20;;;;;;;;;;1880918;75;26340;-38
2022/09/14 12:17:51;;;;;;;0.60;0.50;;;;;;;;;;1883679;75;26293;-43
2022/09/14 12:20:29;;;;;;;0.28;0.28;;;;;;;;;;1903334;75;26293;-40
2022/09/14 12:23:13;;;;;;;0.30;0.30;;;;;;;;;;1898163;75;26321;-40
2022/09/14 12:25:42;;;;;;;0.35;0.35;;;;;;;;;;1875873;75;26277;-43
2022/09/14 12:28:26;;;;;;;0.35;0.35;;;;;;;;;;1876901;75;26308;-41
2022/09/14 12:30:55;;;;;;;0.30;0.30;;;;;;;;;;1806121;78;26353;-39
2022/09/14 12:33:32;;;;;;;0.30;0.30;;;;;;;;;;1870742;75;26262;-37
2022/09/14 12:36:04;;;;;;;0.42;0.42;;;;;;;;;;1888352;75;26744;-41
2022/09/14 12:38:33;;;;;;;0.72;0.23;;;;;;;;;;1889836;75;26707;-38
2022/09/14 12:41:01;;;;;;;0.30;0.30;;;;;;;;;;1890254;75;26259;-39
2022/09/14 12:43:36;;;;;;;0.30;0.30;;;;;;;;;;1892217;75;26301;-38
2022/09/14 12:46:10;;;;;;;0.40;0.17;;;;;;;;;;1904605;75;26346;-38
2022/09/14 12:48:49;;;;;;;0.40;0.40;;;;;;;;;;1894872;75;26308;-38
2022/09/14 12:51:31;;;;;;;0.28;0.28;;;;;;;;;;1880849;75;26317;-38
2022/09/14 12:54:00;;;;;;;0.20;0.20;;;;;;;;;;1897139;75;26248;-39
2022/09/14 12:56:29;;;;;;;0.50;0.50;;;;;;;;;;1904664;75;26308;-41
2022/09/14 12:58:58;;;;;;;0.28;0.28;;;;;;;;;;1902839;75;26251;-46
2022/09/14 13:01:27;;;;;;;0.40;0.40;;;;;;;;;;1858168;75;26263;-41
2022/09/14 13:03:55;;;;;;;0.40;0.40;;;;;;;;;;1902235;75;26281;-41
2022/09/14 13:06:23;;;;;;;2.08;0.55;;;;;;;;;;1884499;75;26523;-38
2022/09/14 13:08:52;;;;;;;4.22;0.53;;;;;;;;;;1879804;75;26707;-38
2022/09/14 13:11:24;;;;;;;2.12;0.53;;;;;;;;;;1890501;75;26744;-38
2022/09/14 13:13:51;;;;;;;5.12;0.60;;;;;;;;;;1887356;75;26246;-38
2022/09/14 13:16:20;;;;;;;1.27;0.40;;;;;;;;;;1903491;75;26175;-38
2022/09/14 13:18:47;;;;;;;1.82;0.68;;;;;;;;;;1904324;74;26234;-39
2022/09/14 13:21:23;;;;;;;1.72;0.47;;;;;;;;;;1865459;76;26259;-39
2022/09/14 13:23:51;;;;;;;4.85;0.60;;;;;;;;;;1887883;75;27154;-41
2022/09/14 13:26:20;;;;;;;4.08;0.70;;;;;;;;;;1886097;75;26319;-40
2022/09/14 13:28:48;;;;;;;2.65;0.60;;;;;;;;;;1902208;75;26293;-43
2022/09/14 13:31:20;;;;;;;6.03;1.00;;;;;;;;;;1896092;75;26281;-38
2022/09/14 13:33:48;;;;;;;3.08;0.70;;;;;;;;;;1879439;75;26254;-40
2022/09/14 13:36:17;;;;;;;3.65;0.57;;;;;;;;;;1887699;75;26355;-38
2022/09/14 13:38:44;;;;;;;2.33;0.55;;;;;;;;;;1892091;75;26312;-43
2022/09/14 13:41:13;;;;;;;2.22;0.62;;;;;;;;;;1886350;75;26257;-42
2022/09/14 13:43:41;;;;;;;1.77;0.50;;;;;;;;;;1883530;75;26265;-39
2022/09/14 13:46:10;;;;;;;1.95;0.60;;;;;;;;;;1885983;75;26446;-38
2022/09/14 13:48:39;;;;;;;0.85;0.50;;;;;;;;;;1890717;75;26746;-38
2022/09/14 13:51:07;;;;;;;1.92;0.60;;;;;;;;;;1891338;74;26802;-40
2022/09/14 13:53:42;;;;;;;0.33;0.33;;;;;;;;;;1898504;75;26238;-38
2022/09/14 13:56:20;;;;;;;2.83;0.50;;;;;;;;;;1890789;75;26747;-42
2022/09/14 13:58:50;;;;;;;0.85;0.50;;;;;;;;;;1897591;75;26247;-40
2022/09/14 14:01:25;;;;;;;4.47;0.40;;;;;;;;;;1895755;75;26692;-38
2022/09/14 14:03:52;;;;;;;5.50;0.70;;;;;;;;;;1895853;75;26255;-46
2022/09/14 14:06:22;;;;;;;1.12;0.55;;;;;;;;;;1896716;75;26743;-39
2022/09/14 14:08:54;;;;;;;0.68;0.50;;;;;;;;;;1901079;75;26273;-42
2022/09/14 14:11:29;;;;;;;1.98;0.45;;;;;;;;;;1893990;75;26587;-40
2022/09/14 14:13:56;;;;;;;0.72;0.35;;;;;;;;;;1878214;74;27393;-39
2022/09/14 14:16:29;;;;;;;1.55;0.30;;;;;;;;;;1898940;75;26339;-39
2022/09/14 14:18:55;;;;;;;1.00;0.40;;;;;;;;;;1899423;74;26322;-38
2022/09/14 14:21:24;;;;;;;1.27;0.40;;;;;;;;;;1877963;75;26281;-40
2022/09/14 14:23:52;;;;;;;0.53;0.50;;;;;;;;;;1890721;75;26249;-40
2022/09/14 14:26:23;;;;;;;0.30;0.30;;;;;;;;;;1901327;75;26251;-41
2022/09/14 14:28:51;;;;;;;0.35;0.35;;;;;;;;;;1881062;75;26246;-38
2022/09/14 14:31:19;;;;;;;0.35;0.35;;;;;;;;;;1879045;75;26742;-39
2022/09/14 14:33:48;;;;;;;0.70;0.37;;;;;;;;;;1871088;75;26270;-42
2022/09/14 14:36:15;;;;;;;1.27;0.40;;;;;;;;;;1881096;75;26262;-39
2022/09/14 14:38:43;;;;;;;0.53;0.40;;;;;;;;;;1866435;75;26246;-44
2022/09/14 14:41:18;;;;;;;1.77;0.30;;;;;;;;;;1876295;75;26928;-42
2022/09/14 14:43:45;;;;;;;0.40;0.40;;;;;;;;;;1874070;75;26239;-38
2022/09/14 14:46:13;;;;;;;0.37;0.37;;;;;;;;;;1885851;75;26357;-41
2022/09/14 14:48:41;;;;;;;1.30;0.30;;;;;;;;;;1884101;75;26402;-40
2022/09/14 14:51:13;;;;;;;0.20;0.20;;;;;;;;;;1877484;75;26309;-41
2022/09/14 14:53:41;;;;;;;0.37;0.30;;;;;;;;;;1888152;75;26268;-41